sensor_id;sensor_type;location;lat;lon;timestamp;P1;durP1;ratioP1;P2;durP2;ratioP2
15913;SDS011;8055;51.930;8.840;2023-08-24T00:01:03;5.60;;;4.63;;
15913;SDS011;8055;51.930;8.840;2023-08-24T00:03:28;11.32;;;5.47;;
15913;SDS011;8055;51.930;8.840;2023-08-24T00:05:54;6.22;;;4.65;;
15913;SDS011;8055;51.930;8.840;2023-08-24T00:08:19;7.32;;;6.00;;
15913;SDS011;8055;51.930;8.840;2023-08-24T00:10:45;7.10;;;5.03;;
15913;SDS011;8055;51.930;8.840;2023-08-24T00:13:11;8.07;;;5.25;;
15913;SDS011;8055;51.930;8.840;2023-08-24T00:15:37;6.15;;;5.28;;
15913;SDS011;8055;51.930;8.840;2023-08-24T00:18:04;7.72;;;6.50;;
15913;SDS011;8055;51.930;8.840;2023-08-24T00:20:30;10.75;;;5.93;;
15913;SDS011;8055;51.930;8.840;2023-08-24T00:22:57;8.32;;;6.38;;
15913;SDS011;8055;51.930;8.840;2023-08-24T00:25:23;7.30;;;6.60;;
15913;SDS011;8055;51.930;8.840;2023-08-24T00:27:49;8.45;;;6.50;;
15913;SDS011;8055;51.930;8.840;2023-08-24T00:30:14;8.00;;;5.78;;
15913;SDS011;8055;51.930;8.840;2023-08-24T00:32:40;8.00;;;5.45;;
15913;SDS011;8055;51.930;8.840;2023-08-24T00:35:05;8.73;;;6.10;;
15913;SDS011;8055;51.930;8.840;2023-08-24T00:37:33;6.85;;;6.13;;
15913;SDS011;8055;51.930;8.840;2023-08-24T00:39:59;8.20;;;6.60;;
15913;SDS011;8055;51.930;8.840;2023-08-24T00:42:28;10.85;;;6.43;;
15913;SDS011;8055;51.930;8.840;2023-08-24T00:44:53;8.77;;;6.22;;
15913;SDS011;8055;51.930;8.840;2023-08-24T00:47:19;8.50;;;6.45;;
15913;SDS011;8055;51.930;8.840;2023-08-24T00:49:44;7.07;;;5.57;;
15913;SDS011;8055;51.930;8.840;2023-08-24T00:52:10;8.50;;;7.05;;
15913;SDS011;8055;51.930;8.840;2023-08-24T00:54:36;6.68;;;5.95;;
15913;SDS011;8055;51.930;8.840;2023-08-24T00:57:04;7.82;;;7.03;;
15913;SDS011;8055;51.930;8.840;2023-08-24T00:59:31;9.25;;;6.75;;
15913;SDS011;8055;51.930;8.840;2023-08-24T01:01:57;11.52;;;7.57;;
15913;SDS011;8055;51.930;8.840;2023-08-24T01:04:23;8.95;;;7.13;;
15913;SDS011;8055;51.930;8.840;2023-08-24T01:06:49;10.13;;;8.65;;
15913;SDS011;8055;51.930;8.840;2023-08-24T01:09:15;9.63;;;8.35;;
15913;SDS011;8055;51.930;8.840;2023-08-24T01:14:36;9.68;;;8.75;;
15913;SDS011;8055;51.930;8.840;2023-08-24T01:17:10;10.05;;;8.48;;
15913;SDS011;8055;51.930;8.840;2023-08-24T01:19:44;9.90;;;8.65;;
15913;SDS011;8055;51.930;8.840;2023-08-24T01:28:07;9.00;;;8.10;;
15913;SDS011;8055;51.930;8.840;2023-08-24T01:30:34;9.48;;;8.45;;
15913;SDS011;8055;51.930;8.840;2023-08-24T01:33:02;11.55;;;9.18;;
15913;SDS011;8055;51.930;8.840;2023-08-24T01:35:29;10.32;;;8.35;;
15913;SDS011;8055;51.930;8.840;2023-08-24T01:37:55;12.77;;;8.02;;
15913;SDS011;8055;51.930;8.840;2023-08-24T01:40:25;11.57;;;8.20;;
15913;SDS011;8055;51.930;8.840;2023-08-24T01:42:57;9.98;;;8.18;;
15913;SDS011;8055;51.930;8.840;2023-08-24T01:45:28;9.57;;;8.57;;
15913;SDS011;8055;51.930;8.840;2023-08-24T01:47:56;12.50;;;9.25;;
15913;SDS011;8055;51.930;8.840;2023-08-24T01:50:24;8.75;;;7.80;;
15913;SDS011;8055;51.930;8.840;2023-08-24T01:52:50;8.98;;;7.70;;
15913;SDS011;8055;51.930;8.840;2023-08-24T01:55:18;11.70;;;9.27;;
15913;SDS011;8055;51.930;8.840;2023-08-24T01:57:44;8.90;;;7.97;;
15913;SDS011;8055;51.930;8.840;2023-08-24T02:00:10;9.43;;;7.35;;
15913;SDS011;8055;51.930;8.840;2023-08-24T02:02:35;7.95;;;7.15;;
15913;SDS011;8055;51.930;8.840;2023-08-24T02:05:01;13.50;;;9.63;;
15913;SDS011;8055;51.930;8.840;2023-08-24T02:07:27;9.80;;;8.45;;
15913;SDS011;8055;51.930;8.840;2023-08-24T02:09:53;9.88;;;8.98;;
15913;SDS011;8055;51.930;8.840;2023-08-24T02:12:18;11.00;;;8.10;;
15913;SDS011;8055;51.930;8.840;2023-08-24T02:14:44;9.45;;;8.57;;
15913;SDS011;8055;51.930;8.840;2023-08-24T02:17:09;10.00;;;8.63;;
15913;SDS011;8055;51.930;8.840;2023-08-24T02:19:35;12.63;;;9.68;;
15913;SDS011;8055;51.930;8.840;2023-08-24T02:22:00;13.73;;;9.10;;
15913;SDS011;8055;51.930;8.840;2023-08-24T02:24:25;9.18;;;8.27;;
15913;SDS011;8055;51.930;8.840;2023-08-24T02:26:51;12.07;;;8.93;;
15913;SDS011;8055;51.930;8.840;2023-08-24T02:29:16;12.18;;;9.73;;
15913;SDS011;8055;51.930;8.840;2023-08-24T02:31:42;11.98;;;9.82;;
15913;SDS011;8055;51.930;8.840;2023-08-24T02:34:07;9.98;;;8.98;;
15913;SDS011;8055;51.930;8.840;2023-08-24T02:36:32;11.45;;;10.15;;
15913;SDS011;8055;51.930;8.840;2023-08-24T02:38:58;11.88;;;10.75;;
15913;SDS011;8055;51.930;8.840;2023-08-24T02:41:24;10.88;;;9.57;;
15913;SDS011;8055;51.930;8.840;2023-08-24T02:43:50;11.40;;;9.05;;
15913;SDS011;8055;51.930;8.840;2023-08-24T02:46:15;12.57;;;9.63;;
15913;SDS011;8055;51.930;8.840;2023-08-24T02:48:42;13.15;;;10.57;;
15913;SDS011;8055;51.930;8.840;2023-08-24T02:51:08;10.70;;;9.57;;
15913;SDS011;8055;51.930;8.840;2023-08-24T02:53:33;10.55;;;8.70;;
15913;SDS011;8055;51.930;8.840;2023-08-24T02:55:59;10.00;;;9.02;;
15913;SDS011;8055;51.930;8.840;2023-08-24T02:58:24;10.38;;;9.05;;
15913;SDS011;8055;51.930;8.840;2023-08-24T03:00:50;9.88;;;8.98;;
15913;SDS011;8055;51.930;8.840;2023-08-24T03:03:15;11.95;;;9.93;;
15913;SDS011;8055;51.930;8.840;2023-08-24T03:05:41;9.27;;;8.38;;
15913;SDS011;8055;51.930;8.840;2023-08-24T03:08:16;17.38;;;9.43;;
15913;SDS011;8055;51.930;8.840;2023-08-24T03:10:41;9.27;;;8.48;;
15913;SDS011;8055;51.930;8.840;2023-08-24T03:13:06;11.00;;;9.48;;
15913;SDS011;8055;51.930;8.840;2023-08-24T03:15:32;11.40;;;9.35;;
15913;SDS011;8055;51.930;8.840;2023-08-24T03:17:57;12.95;;;10.02;;
15913;SDS011;8055;51.930;8.840;2023-08-24T03:20:23;9.88;;;8.77;;
15913;SDS011;8055;51.930;8.840;2023-08-24T03:22:48;11.15;;;8.73;;
15913;SDS011;8055;51.930;8.840;2023-08-24T03:25:13;10.15;;;9.05;;
15913;SDS011;8055;51.930;8.840;2023-08-24T03:27:39;9.52;;;8.52;;
15913;SDS011;8055;51.930;8.840;2023-08-24T03:30:05;10.77;;;9.07;;
15913;SDS011;8055;51.930;8.840;2023-08-24T03:32:30;13.52;;;9.18;;
15913;SDS011;8055;51.930;8.840;2023-08-24T03:34:59;10.60;;;8.45;;
15913;SDS011;8055;51.930;8.840;2023-08-24T03:37:25;9.23;;;7.85;;
15913;SDS011;8055;51.930;8.840;2023-08-24T03:39:50;14.73;;;8.32;;
15913;SDS011;8055;51.930;8.840;2023-08-24T03:42:16;9.77;;;8.85;;
15913;SDS011;8055;51.930;8.840;2023-08-24T03:44:41;10.32;;;8.57;;
15913;SDS011;8055;51.930;8.840;2023-08-24T03:47:06;9.68;;;8.73;;
15913;SDS011;8055;51.930;8.840;2023-08-24T03:49:32;12.02;;;9.07;;
15913;SDS011;8055;51.930;8.840;2023-08-24T03:51:57;9.02;;;8.00;;
15913;SDS011;8055;51.930;8.840;2023-08-24T03:54:22;8.50;;;7.70;;
15913;SDS011;8055;51.930;8.840;2023-08-24T03:56:48;13.60;;;7.60;;
15913;SDS011;8055;51.930;8.840;2023-08-24T03:59:13;9.82;;;8.80;;
15913;SDS011;8055;51.930;8.840;2023-08-24T04:01:39;11.80;;;9.10;;
15913;SDS011;8055;51.930;8.840;2023-08-24T04:04:05;11.00;;;8.88;;
15913;SDS011;8055;51.930;8.840;2023-08-24T04:06:30;11.38;;;9.10;;
15913;SDS011;8055;51.930;8.840;2023-08-24T04:08:55;10.18;;;8.55;;
15913;SDS011;8055;51.930;8.840;2023-08-24T04:11:21;12.10;;;8.85;;
15913;SDS011;8055;51.930;8.840;2023-08-24T04:13:46;12.50;;;8.85;;
15913;SDS011;8055;51.930;8.840;2023-08-24T04:16:11;12.93;;;8.95;;
15913;SDS011;8055;51.930;8.840;2023-08-24T04:18:37;11.52;;;8.25;;
15913;SDS011;8055;51.930;8.840;2023-08-24T04:21:02;8.52;;;7.55;;
15913;SDS011;8055;51.930;8.840;2023-08-24T04:23:28;9.82;;;8.63;;
15913;SDS011;8055;51.930;8.840;2023-08-24T04:25:53;9.02;;;7.18;;
15913;SDS011;8055;51.930;8.840;2023-08-24T04:28:19;9.40;;;7.97;;
15913;SDS011;8055;51.930;8.840;2023-08-24T04:30:49;10.77;;;8.70;;
15913;SDS011;8055;51.930;8.840;2023-08-24T04:33:18;11.52;;;10.32;;
15913;SDS011;8055;51.930;8.840;2023-08-24T04:35:45;14.13;;;11.55;;
15913;SDS011;8055;51.930;8.840;2023-08-24T04:38:14;13.02;;;10.65;;
15913;SDS011;8055;51.930;8.840;2023-08-24T04:40:53;11.13;;;9.63;;
15913;SDS011;8055;51.930;8.840;2023-08-24T04:43:20;16.63;;;10.25;;
15913;SDS011;8055;51.930;8.840;2023-08-24T04:45:47;10.73;;;9.07;;
15913;SDS011;8055;51.930;8.840;2023-08-24T04:48:14;11.02;;;9.90;;
15913;SDS011;8055;51.930;8.840;2023-08-24T04:50:41;12.23;;;10.32;;
15913;SDS011;8055;51.930;8.840;2023-08-24T04:53:07;13.27;;;10.63;;
15913;SDS011;8055;51.930;8.840;2023-08-24T04:55:33;11.23;;;10.10;;
15913;SDS011;8055;51.930;8.840;2023-08-24T04:57:58;18.38;;;12.23;;
15913;SDS011;8055;51.930;8.840;2023-08-24T05:00:23;15.77;;;11.82;;
15913;SDS011;8055;51.930;8.840;2023-08-24T05:02:49;11.65;;;10.55;;
15913;SDS011;8055;51.930;8.840;2023-08-24T05:05:14;13.10;;;11.80;;
15913;SDS011;8055;51.930;8.840;2023-08-24T05:07:40;12.98;;;11.68;;
15913;SDS011;8055;51.930;8.840;2023-08-24T05:10:06;11.65;;;10.45;;
15913;SDS011;8055;51.930;8.840;2023-08-24T05:12:32;13.95;;;12.55;;
15913;SDS011;8055;51.930;8.840;2023-08-24T05:15:01;13.75;;;11.75;;
15913;SDS011;8055;51.930;8.840;2023-08-24T05:17:27;13.55;;;11.52;;
15913;SDS011;8055;51.930;8.840;2023-08-24T05:19:56;15.98;;;12.27;;
15913;SDS011;8055;51.930;8.840;2023-08-24T05:22:21;13.13;;;11.80;;
15913;SDS011;8055;51.930;8.840;2023-08-24T05:24:46;14.52;;;13.13;;
15913;SDS011;8055;51.930;8.840;2023-08-24T05:27:12;15.00;;;13.45;;
15913;SDS011;8055;51.930;8.840;2023-08-24T05:29:37;14.55;;;12.48;;
15913;SDS011;8055;51.930;8.840;2023-08-24T05:32:03;16.17;;;12.80;;
15913;SDS011;8055;51.930;8.840;2023-08-24T05:34:28;17.23;;;11.02;;
15913;SDS011;8055;51.930;8.840;2023-08-24T05:36:53;15.20;;;12.48;;
15913;SDS011;8055;51.930;8.840;2023-08-24T05:39:19;12.82;;;11.48;;
15913;SDS011;8055;51.930;8.840;2023-08-24T05:41:45;12.95;;;10.45;;
15913;SDS011;8055;51.930;8.840;2023-08-24T05:44:10;11.45;;;9.88;;
15913;SDS011;8055;51.930;8.840;2023-08-24T05:46:35;10.32;;;9.35;;
15913;SDS011;8055;51.930;8.840;2023-08-24T05:49:01;15.95;;;11.80;;
15913;SDS011;8055;51.930;8.840;2023-08-24T05:51:26;15.65;;;10.60;;
15913;SDS011;8055;51.930;8.840;2023-08-24T05:53:52;12.70;;;10.93;;
15913;SDS011;8055;51.930;8.840;2023-08-24T05:56:21;13.88;;;12.57;;
15913;SDS011;8055;51.930;8.840;2023-08-24T05:58:47;16.90;;;12.45;;
15913;SDS011;8055;51.930;8.840;2023-08-24T06:01:12;13.98;;;12.13;;
15913;SDS011;8055;51.930;8.840;2023-08-24T06:03:37;17.42;;;14.77;;
15913;SDS011;8055;51.930;8.840;2023-08-24T06:06:03;17.60;;;15.75;;
15913;SDS011;8055;51.930;8.840;2023-08-24T06:08:29;20.55;;;15.13;;
15913;SDS011;8055;51.930;8.840;2023-08-24T06:10:55;21.27;;;17.08;;
15913;SDS011;8055;51.930;8.840;2023-08-24T06:13:21;21.70;;;16.90;;
15913;SDS011;8055;51.930;8.840;2023-08-24T06:15:46;22.45;;;17.48;;
15913;SDS011;8055;51.930;8.840;2023-08-24T06:18:12;18.08;;;16.17;;
15913;SDS011;8055;51.930;8.840;2023-08-24T06:20:37;17.45;;;15.80;;
15913;SDS011;8055;51.930;8.840;2023-08-24T06:23:03;16.48;;;14.73;;
15913;SDS011;8055;51.930;8.840;2023-08-24T06:25:28;14.40;;;13.10;;
15913;SDS011;8055;51.930;8.840;2023-08-24T06:27:53;13.98;;;12.68;;
15913;SDS011;8055;51.930;8.840;2023-08-24T06:30:19;17.88;;;13.77;;
15913;SDS011;8055;51.930;8.840;2023-08-24T06:32:44;18.33;;;14.40;;
15913;SDS011;8055;51.930;8.840;2023-08-24T06:35:10;15.05;;;13.65;;
15913;SDS011;8055;51.930;8.840;2023-08-24T06:37:39;14.52;;;13.05;;
15913;SDS011;8055;51.930;8.840;2023-08-24T06:40:05;21.25;;;13.85;;
15913;SDS011;8055;51.930;8.840;2023-08-24T06:42:31;19.75;;;16.00;;
15913;SDS011;8055;51.930;8.840;2023-08-24T06:44:57;16.08;;;14.38;;
15913;SDS011;8055;51.930;8.840;2023-08-24T06:47:22;16.08;;;14.38;;
15913;SDS011;8055;51.930;8.840;2023-08-24T06:49:47;16.00;;;13.23;;
15913;SDS011;8055;51.930;8.840;2023-08-24T06:52:13;16.25;;;14.75;;
15913;SDS011;8055;51.930;8.840;2023-08-24T06:54:38;16.48;;;14.63;;
15913;SDS011;8055;51.930;8.840;2023-08-24T06:57:04;19.98;;;16.15;;
15913;SDS011;8055;51.930;8.840;2023-08-24T06:59:29;18.52;;;15.20;;
15913;SDS011;8055;51.930;8.840;2023-08-24T07:01:55;19.75;;;16.23;;
15913;SDS011;8055;51.930;8.840;2023-08-24T07:04:20;16.33;;;14.73;;
15913;SDS011;8055;51.930;8.840;2023-08-24T07:06:45;21.23;;;18.02;;
15913;SDS011;8055;51.930;8.840;2023-08-24T07:09:11;20.15;;;18.15;;
15913;SDS011;8055;51.930;8.840;2023-08-24T07:11:36;21.35;;;19.08;;
15913;SDS011;8055;51.930;8.840;2023-08-24T07:14:02;23.05;;;20.77;;
15913;SDS011;8055;51.930;8.840;2023-08-24T07:16:27;24.98;;;22.50;;
15913;SDS011;8055;51.930;8.840;2023-08-24T07:18:53;23.30;;;20.92;;
15913;SDS011;8055;51.930;8.840;2023-08-24T07:21:18;27.55;;;24.70;;
15913;SDS011;8055;51.930;8.840;2023-08-24T07:23:44;22.77;;;20.30;;
15913;SDS011;8055;51.930;8.840;2023-08-24T07:26:09;25.60;;;22.70;;
15913;SDS011;8055;51.930;8.840;2023-08-24T07:28:35;27.65;;;24.83;;
15913;SDS011;8055;51.930;8.840;2023-08-24T07:31:10;24.02;;;21.55;;
15913;SDS011;8055;51.930;8.840;2023-08-24T07:33:36;23.77;;;21.48;;
15913;SDS011;8055;51.930;8.840;2023-08-24T07:36:04;28.20;;;25.20;;
15913;SDS011;8055;51.930;8.840;2023-08-24T07:38:29;27.15;;;24.50;;
15913;SDS011;8055;51.930;8.840;2023-08-24T07:40:56;31.75;;;28.52;;
15913;SDS011;8055;51.930;8.840;2023-08-24T07:43:22;32.00;;;29.05;;
15913;SDS011;8055;51.930;8.840;2023-08-24T07:45:47;29.15;;;25.42;;
15913;SDS011;8055;51.930;8.840;2023-08-24T07:48:12;28.67;;;25.80;;
15913;SDS011;8055;51.930;8.840;2023-08-24T07:50:38;29.33;;;26.42;;
15913;SDS011;8055;51.930;8.840;2023-08-24T07:53:03;29.20;;;26.40;;
15913;SDS011;8055;51.930;8.840;2023-08-24T07:55:29;29.10;;;25.98;;
15913;SDS011;8055;51.930;8.840;2023-08-24T07:57:55;27.73;;;25.13;;
15913;SDS011;8055;51.930;8.840;2023-08-24T08:00:20;29.77;;;25.08;;
15913;SDS011;8055;51.930;8.840;2023-08-24T08:02:49;25.00;;;22.35;;
15913;SDS011;8055;51.930;8.840;2023-08-24T08:05:15;22.05;;;19.80;;
15913;SDS011;8055;51.930;8.840;2023-08-24T08:07:41;22.98;;;20.60;;
15913;SDS011;8055;51.930;8.840;2023-08-24T08:10:06;21.27;;;18.40;;
15913;SDS011;8055;51.930;8.840;2023-08-24T08:12:32;21.67;;;19.42;;
15913;SDS011;8055;51.930;8.840;2023-08-24T08:14:58;22.65;;;20.27;;
15913;SDS011;8055;51.930;8.840;2023-08-24T08:17:24;22.42;;;20.13;;
15913;SDS011;8055;51.930;8.840;2023-08-24T08:19:54;20.27;;;18.20;;
15913;SDS011;8055;51.930;8.840;2023-08-24T08:22:20;19.70;;;17.63;;
15913;SDS011;8055;51.930;8.840;2023-08-24T08:24:45;20.33;;;18.20;;
15913;SDS011;8055;51.930;8.840;2023-08-24T08:27:10;19.05;;;17.15;;
15913;SDS011;8055;51.930;8.840;2023-08-24T08:29:36;18.25;;;16.45;;
15913;SDS011;8055;51.930;8.840;2023-08-24T08:32:01;19.77;;;17.85;;
15913;SDS011;8055;51.930;8.840;2023-08-24T08:34:27;19.52;;;17.15;;
15913;SDS011;8055;51.930;8.840;2023-08-24T08:36:52;19.17;;;17.25;;
15913;SDS011;8055;51.930;8.840;2023-08-24T08:39:17;19.83;;;15.88;;
15913;SDS011;8055;51.930;8.840;2023-08-24T08:41:43;19.17;;;17.27;;
15913;SDS011;8055;51.930;8.840;2023-08-24T08:44:12;18.33;;;14.60;;
15913;SDS011;8055;51.930;8.840;2023-08-24T08:46:42;18.30;;;14.88;;
15913;SDS011;8055;51.930;8.840;2023-08-24T08:49:08;18.48;;;16.58;;
15913;SDS011;8055;51.930;8.840;2023-08-24T08:51:37;18.70;;;17.00;;
15913;SDS011;8055;51.930;8.840;2023-08-24T08:54:03;21.55;;;18.02;;
15913;SDS011;8055;51.930;8.840;2023-08-24T08:56:30;22.92;;;17.85;;
15913;SDS011;8055;51.930;8.840;2023-08-24T08:58:56;19.58;;;17.52;;
15913;SDS011;8055;51.930;8.840;2023-08-24T09:01:24;18.48;;;16.58;;
15913;SDS011;8055;51.930;8.840;2023-08-24T09:03:50;20.35;;;17.83;;
15913;SDS011;8055;51.930;8.840;2023-08-24T09:06:16;21.80;;;18.67;;
15913;SDS011;8055;51.930;8.840;2023-08-24T09:08:42;23.27;;;18.02;;
15913;SDS011;8055;51.930;8.840;2023-08-24T09:11:08;20.67;;;18.42;;
15913;SDS011;8055;51.930;8.840;2023-08-24T09:13:34;21.02;;;17.27;;
15913;SDS011;8055;51.930;8.840;2023-08-24T09:16:04;18.33;;;16.58;;
15913;SDS011;8055;51.930;8.840;2023-08-24T09:18:37;19.27;;;17.23;;
15913;SDS011;8055;51.930;8.840;2023-08-24T09:21:10;16.73;;;15.05;;
15913;SDS011;8055;51.930;8.840;2023-08-24T09:23:37;14.95;;;13.35;;
15913;SDS011;8055;51.930;8.840;2023-08-24T09:26:03;16.17;;;13.30;;
15913;SDS011;8055;51.930;8.840;2023-08-24T09:28:29;13.95;;;10.45;;
15913;SDS011;8055;51.930;8.840;2023-08-24T09:30:55;15.82;;;10.80;;
15913;SDS011;8055;51.930;8.840;2023-08-24T09:33:21;9.80;;;8.90;;
15913;SDS011;8055;51.930;8.840;2023-08-24T09:35:54;13.70;;;9.88;;
15913;SDS011;8055;51.930;8.840;2023-08-24T09:38:29;11.30;;;8.60;;
15913;SDS011;8055;51.930;8.840;2023-08-24T09:40:55;9.27;;;7.82;;
15913;SDS011;8055;51.930;8.840;2023-08-24T09:43:21;9.68;;;7.43;;
15913;SDS011;8055;51.930;8.840;2023-08-24T09:45:54;12.13;;;7.07;;
15913;SDS011;8055;51.930;8.840;2023-08-24T09:48:20;9.52;;;6.82;;
15913;SDS011;8055;51.930;8.840;2023-08-24T09:50:49;10.23;;;6.35;;
15913;SDS011;8055;51.930;8.840;2023-08-24T09:55:42;9.30;;;5.32;;
15913;SDS011;8055;51.930;8.840;2023-08-24T09:58:13;6.45;;;4.57;;
15913;SDS011;8055;51.930;8.840;2023-08-24T10:00:39;8.23;;;5.68;;
15913;SDS011;8055;51.930;8.840;2023-08-24T10:03:04;7.07;;;4.60;;
15913;SDS011;8055;51.930;8.840;2023-08-24T10:05:31;9.55;;;4.88;;
15913;SDS011;8055;51.930;8.840;2023-08-24T10:07:57;6.32;;;4.18;;
15913;SDS011;8055;51.930;8.840;2023-08-24T10:10:26;4.97;;;4.47;;
15913;SDS011;8055;51.930;8.840;2023-08-24T10:12:59;6.93;;;4.63;;
15913;SDS011;8055;51.930;8.840;2023-08-24T10:15:36;12.10;;;5.40;;
15913;SDS011;8055;51.930;8.840;2023-08-24T10:18:12;11.02;;;6.03;;
15913;SDS011;8055;51.930;8.840;2023-08-24T10:20:39;6.18;;;5.25;;
15913;SDS011;8055;51.930;8.840;2023-08-24T10:23:05;6.25;;;4.85;;
15913;SDS011;8055;51.930;8.840;2023-08-24T10:25:31;9.30;;;4.22;;
15913;SDS011;8055;51.930;8.840;2023-08-24T10:27:57;5.28;;;4.05;;
15913;SDS011;8055;51.930;8.840;2023-08-24T10:30:23;7.70;;;4.65;;
15913;SDS011;8055;51.930;8.840;2023-08-24T10:32:48;9.20;;;5.05;;
15913;SDS011;8055;51.930;8.840;2023-08-24T10:35:19;6.72;;;4.93;;
15913;SDS011;8055;51.930;8.840;2023-08-24T10:37:45;7.47;;;4.50;;
15913;SDS011;8055;51.930;8.840;2023-08-24T10:40:11;6.95;;;4.43;;
15913;SDS011;8055;51.930;8.840;2023-08-24T10:42:44;9.70;;;5.03;;
15913;SDS011;8055;51.930;8.840;2023-08-24T10:45:11;7.72;;;4.57;;
15913;SDS011;8055;51.930;8.840;2023-08-24T10:47:45;9.05;;;4.90;;
15913;SDS011;8055;51.930;8.840;2023-08-24T10:50:11;7.43;;;5.35;;
15913;SDS011;8055;51.930;8.840;2023-08-24T10:52:37;7.95;;;5.20;;
15913;SDS011;8055;51.930;8.840;2023-08-24T10:55:04;11.57;;;4.63;;
15913;SDS011;8055;51.930;8.840;2023-08-24T10:57:47;8.35;;;4.43;;
15913;SDS011;8055;51.930;8.840;2023-08-24T11:00:25;9.77;;;5.97;;
15913;SDS011;8055;51.930;8.840;2023-08-24T11:02:52;5.88;;;4.53;;
15913;SDS011;8055;51.930;8.840;2023-08-24T11:05:21;6.40;;;5.10;;
15913;SDS011;8055;51.930;8.840;2023-08-24T11:10:31;7.60;;;4.50;;
15913;SDS011;8055;51.930;8.840;2023-08-24T11:15:38;12.60;;;5.55;;
15913;SDS011;8055;51.930;8.840;2023-08-24T11:20:47;7.78;;;4.88;;
15913;SDS011;8055;51.930;8.840;2023-08-24T11:23:17;12.02;;;4.80;;
15913;SDS011;8055;51.930;8.840;2023-08-24T11:25:44;9.85;;;4.57;;
15913;SDS011;8055;51.930;8.840;2023-08-24T11:28:11;10.07;;;4.20;;
15913;SDS011;8055;51.930;8.840;2023-08-24T11:30:36;6.05;;;4.47;;
15913;SDS011;8055;51.930;8.840;2023-08-24T11:33:02;7.13;;;4.80;;
15913;SDS011;8055;51.930;8.840;2023-08-24T11:35:28;6.57;;;4.90;;
15913;SDS011;8055;51.930;8.840;2023-08-24T11:37:55;7.82;;;4.18;;
15913;SDS011;8055;51.930;8.840;2023-08-24T11:40:21;6.47;;;3.75;;
15913;SDS011;8055;51.930;8.840;2023-08-24T11:42:54;5.40;;;4.47;;
15913;SDS011;8055;51.930;8.840;2023-08-24T11:45:21;11.75;;;4.40;;
15913;SDS011;8055;51.930;8.840;2023-08-24T11:47:47;7.00;;;4.28;;
15913;SDS011;8055;51.930;8.840;2023-08-24T11:50:13;5.90;;;4.13;;
15913;SDS011;8055;51.930;8.840;2023-08-24T11:52:42;6.00;;;4.32;;
15913;SDS011;8055;51.930;8.840;2023-08-24T11:55:08;7.68;;;4.30;;
15913;SDS011;8055;51.930;8.840;2023-08-24T11:57:37;9.02;;;3.88;;
15913;SDS011;8055;51.930;8.840;2023-08-24T12:00:03;10.52;;;3.60;;
15913;SDS011;8055;51.930;8.840;2023-08-24T12:02:29;5.07;;;3.67;;
15913;SDS011;8055;51.930;8.840;2023-08-24T12:04:55;7.05;;;3.42;;
15913;SDS011;8055;51.930;8.840;2023-08-24T12:07:21;7.47;;;3.38;;
15913;SDS011;8055;51.930;8.840;2023-08-24T12:09:46;8.40;;;3.50;;
15913;SDS011;8055;51.930;8.840;2023-08-24T12:12:15;5.95;;;3.40;;
15913;SDS011;8055;51.930;8.840;2023-08-24T12:14:42;15.20;;;3.15;;
15913;SDS011;8055;51.930;8.840;2023-08-24T12:17:08;7.65;;;3.25;;
15913;SDS011;8055;51.930;8.840;2023-08-24T12:19:34;4.57;;;3.17;;
15913;SDS011;8055;51.930;8.840;2023-08-24T12:21:59;5.65;;;2.88;;
15913;SDS011;8055;51.930;8.840;2023-08-24T12:24:25;8.45;;;2.88;;
15913;SDS011;8055;51.930;8.840;2023-08-24T12:26:57;13.70;;;3.20;;
15913;SDS011;8055;51.930;8.840;2023-08-24T12:29:23;10.07;;;3.40;;
15913;SDS011;8055;51.930;8.840;2023-08-24T12:31:49;8.48;;;3.47;;
15913;SDS011;8055;51.930;8.840;2023-08-24T12:34:14;8.32;;;3.88;;
15913;SDS011;8055;51.930;8.840;2023-08-24T12:36:41;5.88;;;3.20;;
15913;SDS011;8055;51.930;8.840;2023-08-24T12:39:10;7.72;;;3.20;;
15913;SDS011;8055;51.930;8.840;2023-08-24T12:41:38;5.03;;;3.22;;
15913;SDS011;8055;51.930;8.840;2023-08-24T12:44:03;7.25;;;3.22;;
15913;SDS011;8055;51.930;8.840;2023-08-24T12:46:33;7.82;;;3.40;;
15913;SDS011;8055;51.930;8.840;2023-08-24T12:49:02;5.10;;;3.08;;
15913;SDS011;8055;51.930;8.840;2023-08-24T12:51:28;7.82;;;3.40;;
15913;SDS011;8055;51.930;8.840;2023-08-24T12:53:53;4.63;;;3.10;;
15913;SDS011;8055;51.930;8.840;2023-08-24T12:56:19;8.05;;;3.10;;
15913;SDS011;8055;51.930;8.840;2023-08-24T12:58:44;6.43;;;2.95;;
15913;SDS011;8055;51.930;8.840;2023-08-24T13:01:11;9.25;;;3.28;;
15913;SDS011;8055;51.930;8.840;2023-08-24T13:03:37;7.40;;;3.10;;
15913;SDS011;8055;51.930;8.840;2023-08-24T13:06:05;6.55;;;2.90;;
15913;SDS011;8055;51.930;8.840;2023-08-24T13:08:31;4.03;;;3.30;;
15913;SDS011;8055;51.930;8.840;2023-08-24T13:10:56;9.35;;;3.13;;
15913;SDS011;8055;51.930;8.840;2023-08-24T13:13:21;4.20;;;2.90;;
15913;SDS011;8055;51.930;8.840;2023-08-24T13:15:50;4.50;;;2.95;;
15913;SDS011;8055;51.930;8.840;2023-08-24T13:18:16;6.57;;;3.15;;
15913;SDS011;8055;51.930;8.840;2023-08-24T13:20:41;7.15;;;3.05;;
15913;SDS011;8055;51.930;8.840;2023-08-24T13:23:07;9.83;;;3.30;;
15913;SDS011;8055;51.930;8.840;2023-08-24T13:25:32;5.22;;;3.40;;
15913;SDS011;8055;51.930;8.840;2023-08-24T13:27:58;7.32;;;2.90;;
15913;SDS011;8055;51.930;8.840;2023-08-24T13:30:23;4.22;;;3.08;;
15913;SDS011;8055;51.930;8.840;2023-08-24T13:32:48;5.90;;;3.05;;
15913;SDS011;8055;51.930;8.840;2023-08-24T13:35:14;6.72;;;3.28;;
15913;SDS011;8055;51.930;8.840;2023-08-24T13:37:39;8.50;;;3.65;;
15913;SDS011;8055;51.930;8.840;2023-08-24T13:40:05;6.18;;;3.42;;
15913;SDS011;8055;51.930;8.840;2023-08-24T13:42:32;6.60;;;3.78;;
15913;SDS011;8055;51.930;8.840;2023-08-24T13:44:57;7.72;;;3.10;;
15913;SDS011;8055;51.930;8.840;2023-08-24T13:47:23;7.15;;;2.90;;
15913;SDS011;8055;51.930;8.840;2023-08-24T13:49:48;7.03;;;3.17;;
15913;SDS011;8055;51.930;8.840;2023-08-24T13:52:14;5.88;;;3.55;;
15913;SDS011;8055;51.930;8.840;2023-08-24T13:54:41;8.68;;;3.28;;
15913;SDS011;8055;51.930;8.840;2023-08-24T13:57:06;6.38;;;3.10;;
15913;SDS011;8055;51.930;8.840;2023-08-24T13:59:32;6.00;;;3.10;;
15913;SDS011;8055;51.930;8.840;2023-08-24T14:01:57;8.85;;;3.78;;
15913;SDS011;8055;51.930;8.840;2023-08-24T14:04:23;7.30;;;3.17;;
15913;SDS011;8055;51.930;8.840;2023-08-24T14:06:48;6.10;;;3.42;;
15913;SDS011;8055;51.930;8.840;2023-08-24T14:09:14;8.10;;;3.60;;
15913;SDS011;8055;51.930;8.840;2023-08-24T14:11:39;7.35;;;3.63;;
15913;SDS011;8055;51.930;8.840;2023-08-24T14:14:05;5.75;;;3.47;;
15913;SDS011;8055;51.930;8.840;2023-08-24T14:16:30;6.47;;;3.25;;
15913;SDS011;8055;51.930;8.840;2023-08-24T14:18:55;8.13;;;3.40;;
15913;SDS011;8055;51.930;8.840;2023-08-24T14:21:21;5.70;;;3.55;;
15913;SDS011;8055;51.930;8.840;2023-08-24T14:23:48;5.88;;;3.22;;
15913;SDS011;8055;51.930;8.840;2023-08-24T14:26:14;6.90;;;3.53;;
15913;SDS011;8055;51.930;8.840;2023-08-24T14:31:21;8.07;;;3.58;;
15913;SDS011;8055;51.930;8.840;2023-08-24T14:33:47;5.85;;;3.33;;
15913;SDS011;8055;51.930;8.840;2023-08-24T14:36:12;7.72;;;3.70;;
15913;SDS011;8055;51.930;8.840;2023-08-24T14:38:38;7.30;;;3.92;;
15913;SDS011;8055;51.930;8.840;2023-08-24T14:41:05;3.65;;;3.25;;
15913;SDS011;8055;51.930;8.840;2023-08-24T14:43:31;6.55;;;3.70;;
15913;SDS011;8055;51.930;8.840;2023-08-24T14:45:56;7.32;;;3.85;;
15913;SDS011;8055;51.930;8.840;2023-08-24T14:48:21;6.30;;;3.72;;
15913;SDS011;8055;51.930;8.840;2023-08-24T14:50:47;8.40;;;3.33;;
15913;SDS011;8055;51.930;8.840;2023-08-24T14:53:13;9.85;;;3.83;;
15913;SDS011;8055;51.930;8.840;2023-08-24T14:55:38;6.50;;;3.40;;
15913;SDS011;8055;51.930;8.840;2023-08-24T14:58:04;8.55;;;3.90;;
15913;SDS011;8055;51.930;8.840;2023-08-24T15:00:29;6.30;;;3.42;;
15913;SDS011;8055;51.930;8.840;2023-08-24T15:02:54;5.22;;;3.80;;
15913;SDS011;8055;51.930;8.840;2023-08-24T15:05:21;4.93;;;3.63;;
15913;SDS011;8055;51.930;8.840;2023-08-24T15:07:46;5.55;;;3.70;;